sensor_id;sensor_type;location;lat;lon;timestamp;P1;durP1;ratioP1;P2;durP2;ratioP2
64832;SDS011;51290;45.060;38.948;2023-11-21T00:01:54;7.35;;;5.80;;
64832;SDS011;51290;45.060;38.948;2023-11-21T00:04:20;7.05;;;5.53;;
64832;SDS011;51290;45.060;38.948;2023-11-21T00:06:46;7.22;;;5.72;;
64832;SDS011;51290;45.060;38.948;2023-11-21T00:09:13;10.00;;;6.30;;
64832;SDS011;51290;45.060;38.948;2023-11-21T00:11:41;7.38;;;5.75;;
64832;SDS011;51290;45.060;38.948;2023-11-21T00:14:07;8.50;;;6.13;;
64832;SDS011;51290;45.060;38.948;2023-11-21T00:16:33;6.78;;;6.10;;
64832;SDS011;51290;45.060;38.948;2023-11-21T00:18:59;9.63;;;7.18;;
64832;SDS011;51290;45.060;38.948;2023-11-21T00:21:25;8.75;;;6.97;;
64832;SDS011;51290;45.060;38.948;2023-11-21T00:23:51;8.85;;;6.95;;
64832;SDS011;51290;45.060;38.948;2023-11-21T00:26:17;8.85;;;6.85;;
64832;SDS011;51290;45.060;38.948;2023-11-21T00:28:49;7.97;;;5.80;;
64832;SDS011;51290;45.060;38.948;2023-11-21T00:31:15;9.15;;;7.15;;
64832;SDS011;51290;45.060;38.948;2023-11-21T00:33:41;7.07;;;5.45;;
64832;SDS011;51290;45.060;38.948;2023-11-21T00:36:08;6.00;;;5.03;;
64832;SDS011;51290;45.060;38.948;2023-11-21T00:38:35;6.80;;;5.35;;
64832;SDS011;51290;45.060;38.948;2023-11-21T00:41:01;9.27;;;6.03;;
64832;SDS011;51290;45.060;38.948;2023-11-21T00:43:28;6.53;;;5.65;;
64832;SDS011;51290;45.060;38.948;2023-11-21T00:45:54;6.75;;;5.47;;
64832;SDS011;51290;45.060;38.948;2023-11-21T00:48:20;8.35;;;5.38;;
64832;SDS011;51290;45.060;38.948;2023-11-21T00:50:46;7.60;;;5.68;;
64832;SDS011;51290;45.060;38.948;2023-11-21T00:53:12;8.35;;;6.43;;
64832;SDS011;51290;45.060;38.948;2023-11-21T00:55:38;8.80;;;5.68;;
64832;SDS011;51290;45.060;38.948;2023-11-21T00:58:05;7.75;;;6.00;;
64832;SDS011;51290;45.060;38.948;2023-11-21T01:00:32;7.78;;;6.03;;
64832;SDS011;51290;45.060;38.948;2023-11-21T01:02:59;8.43;;;6.10;;
64832;SDS011;51290;45.060;38.948;2023-11-21T01:05:25;7.35;;;5.38;;
64832;SDS011;51290;45.060;38.948;2023-11-21T01:07:52;6.43;;;5.15;;
64832;SDS011;51290;45.060;38.948;2023-11-21T01:10:18;9.40;;;5.40;;
64832;SDS011;51290;45.060;38.948;2023-11-21T01:12:44;7.10;;;5.35;;
64832;SDS011;51290;45.060;38.948;2023-11-21T01:15:10;5.97;;;4.68;;
64832;SDS011;51290;45.060;38.948;2023-11-21T01:17:38;6.40;;;4.97;;
64832;SDS011;51290;45.060;38.948;2023-11-21T01:20:05;6.55;;;4.95;;
64832;SDS011;51290;45.060;38.948;2023-11-21T01:22:36;6.53;;;4.85;;
64832;SDS011;51290;45.060;38.948;2023-11-21T01:25:02;7.97;;;5.45;;
64832;SDS011;51290;45.060;38.948;2023-11-21T01:27:33;7.68;;;5.90;;
64832;SDS011;51290;45.060;38.948;2023-11-21T01:30:00;7.28;;;5.00;;
64832;SDS011;51290;45.060;38.948;2023-11-21T01:32:27;7.28;;;5.47;;
64832;SDS011;51290;45.060;38.948;2023-11-21T01:34:54;8.00;;;5.90;;
64832;SDS011;51290;45.060;38.948;2023-11-21T01:37:23;7.10;;;5.45;;
64832;SDS011;51290;45.060;38.948;2023-11-21T01:39:49;6.53;;;5.40;;
64832;SDS011;51290;45.060;38.948;2023-11-21T01:42:15;7.03;;;5.50;;
64832;SDS011;51290;45.060;38.948;2023-11-21T01:44:41;8.65;;;5.80;;
64832;SDS011;51290;45.060;38.948;2023-11-21T01:47:07;7.63;;;5.72;;
64832;SDS011;51290;45.060;38.948;2023-11-21T01:49:35;7.90;;;5.93;;
64832;SDS011;51290;45.060;38.948;2023-11-21T01:52:01;9.40;;;5.65;;
64832;SDS011;51290;45.060;38.948;2023-11-21T01:54:29;7.95;;;5.68;;
64832;SDS011;51290;45.060;38.948;2023-11-21T01:56:57;6.63;;;5.32;;
64832;SDS011;51290;45.060;38.948;2023-11-21T01:59:30;11.15;;;6.45;;
64832;SDS011;51290;45.060;38.948;2023-11-21T02:02:06;7.17;;;5.80;;
64832;SDS011;51290;45.060;38.948;2023-11-21T02:04:33;8.10;;;5.82;;
64832;SDS011;51290;45.060;38.948;2023-11-21T02:07:02;8.20;;;6.30;;
64832;SDS011;51290;45.060;38.948;2023-11-21T02:09:31;8.13;;;6.57;;
64832;SDS011;51290;45.060;38.948;2023-11-21T02:11:58;10.88;;;7.95;;
64832;SDS011;51290;45.060;38.948;2023-11-21T02:14:25;9.30;;;7.88;;
64832;SDS011;51290;45.060;38.948;2023-11-21T02:16:52;10.93;;;7.85;;
64832;SDS011;51290;45.060;38.948;2023-11-21T02:19:19;9.60;;;8.30;;
64832;SDS011;51290;45.060;38.948;2023-11-21T02:21:51;9.77;;;8.23;;
64832;SDS011;51290;45.060;38.948;2023-11-21T02:24:19;11.55;;;8.82;;
64832;SDS011;51290;45.060;38.948;2023-11-21T02:26:45;11.18;;;9.27;;
64832;SDS011;51290;45.060;38.948;2023-11-21T02:29:11;12.32;;;9.93;;
64832;SDS011;51290;45.060;38.948;2023-11-21T02:31:39;12.48;;;10.30;;
64832;SDS011;51290;45.060;38.948;2023-11-21T02:34:16;14.23;;;11.65;;
64832;SDS011;51290;45.060;38.948;2023-11-21T02:36:43;14.02;;;11.43;;
64832;SDS011;51290;45.060;38.948;2023-11-21T02:39:11;13.82;;;10.85;;
64832;SDS011;51290;45.060;38.948;2023-11-21T02:41:37;13.65;;;11.30;;
64832;SDS011;51290;45.060;38.948;2023-11-21T02:44:04;13.60;;;11.57;;
64832;SDS011;51290;45.060;38.948;2023-11-21T02:46:31;14.35;;;12.15;;
64832;SDS011;51290;45.060;38.948;2023-11-21T02:49:02;16.13;;;12.27;;
64832;SDS011;51290;45.060;38.948;2023-11-21T02:51:31;16.63;;;12.25;;
64832;SDS011;51290;45.060;38.948;2023-11-21T02:53:58;14.85;;;11.95;;
64832;SDS011;51290;45.060;38.948;2023-11-21T02:56:27;14.95;;;12.18;;
64832;SDS011;51290;45.060;38.948;2023-11-21T02:58:55;13.80;;;11.25;;
64832;SDS011;51290;45.060;38.948;2023-11-21T03:01:21;13.93;;;11.88;;
64832;SDS011;51290;45.060;38.948;2023-11-21T03:03:49;14.55;;;11.80;;
64832;SDS011;51290;45.060;38.948;2023-11-21T03:06:17;13.32;;;11.55;;
64832;SDS011;51290;45.060;38.948;2023-11-21T03:08:44;19.63;;;12.00;;
64832;SDS011;51290;45.060;38.948;2023-11-21T03:11:10;14.50;;;11.75;;
64832;SDS011;51290;45.060;38.948;2023-11-21T03:13:36;14.38;;;11.38;;
64832;SDS011;51290;45.060;38.948;2023-11-21T03:16:02;13.55;;;11.25;;
64832;SDS011;51290;45.060;38.948;2023-11-21T03:18:28;15.93;;;11.52;;
64832;SDS011;51290;45.060;38.948;2023-11-21T03:20:54;13.25;;;10.95;;
64832;SDS011;51290;45.060;38.948;2023-11-21T03:23:20;12.98;;;10.95;;
64832;SDS011;51290;45.060;38.948;2023-11-21T03:25:46;14.88;;;10.38;;
64832;SDS011;51290;45.060;38.948;2023-11-21T03:28:12;13.75;;;10.85;;
64832;SDS011;51290;45.060;38.948;2023-11-21T03:30:38;14.05;;;10.38;;
64832;SDS011;51290;45.060;38.948;2023-11-21T03:33:04;13.20;;;11.43;;
64832;SDS011;51290;45.060;38.948;2023-11-21T03:35:30;15.02;;;11.07;;
64832;SDS011;51290;45.060;38.948;2023-11-21T03:37:56;12.15;;;10.25;;
64832;SDS011;51290;45.060;38.948;2023-11-21T03:40:22;12.02;;;10.10;;
64832;SDS011;51290;45.060;38.948;2023-11-21T03:42:48;11.52;;;10.23;;
64832;SDS011;51290;45.060;38.948;2023-11-21T03:45:14;18.63;;;11.20;;
64832;SDS011;51290;45.060;38.948;2023-11-21T03:47:43;13.68;;;10.23;;
64832;SDS011;51290;45.060;38.948;2023-11-21T03:50:09;11.48;;;9.88;;
64832;SDS011;51290;45.060;38.948;2023-11-21T03:52:35;12.13;;;10.23;;
64832;SDS011;51290;45.060;38.948;2023-11-21T03:55:03;14.07;;;10.93;;
64832;SDS011;51290;45.060;38.948;2023-11-21T03:57:29;13.18;;;10.30;;
64832;SDS011;51290;45.060;38.948;2023-11-21T03:59:55;13.63;;;10.73;;
64832;SDS011;51290;45.060;38.948;2023-11-21T04:02:21;10.10;;;8.75;;
64832;SDS011;51290;45.060;38.948;2023-11-21T04:04:47;13.23;;;10.18;;
64832;SDS011;51290;45.060;38.948;2023-11-21T04:07:13;10.77;;;8.80;;
64832;SDS011;51290;45.060;38.948;2023-11-21T04:09:39;10.98;;;9.30;;
64832;SDS011;51290;45.060;38.948;2023-11-21T04:12:06;11.57;;;9.30;;
64832;SDS011;51290;45.060;38.948;2023-11-21T04:14:34;11.90;;;9.70;;
64832;SDS011;51290;45.060;38.948;2023-11-21T04:17:01;14.02;;;10.60;;
64832;SDS011;51290;45.060;38.948;2023-11-21T04:19:26;13.65;;;9.82;;
64832;SDS011;51290;45.060;38.948;2023-11-21T04:21:52;13.52;;;10.45;;
64832;SDS011;51290;45.060;38.948;2023-11-21T04:24:18;14.13;;;10.40;;
64832;SDS011;51290;45.060;38.948;2023-11-21T04:26:44;13.75;;;10.73;;
64832;SDS011;51290;45.060;38.948;2023-11-21T04:29:10;13.70;;;10.93;;
64832;SDS011;51290;45.060;38.948;2023-11-21T04:31:36;13.55;;;10.95;;
64832;SDS011;51290;45.060;38.948;2023-11-21T04:34:02;11.95;;;10.52;;
64832;SDS011;51290;45.060;38.948;2023-11-21T04:36:31;17.33;;;13.52;;
64832;SDS011;51290;45.060;38.948;2023-11-21T04:38:57;17.13;;;12.98;;
64832;SDS011;51290;45.060;38.948;2023-11-21T04:41:23;15.70;;;12.50;;
64832;SDS011;51290;45.060;38.948;2023-11-21T04:43:49;14.80;;;12.18;;
64832;SDS011;51290;45.060;38.948;2023-11-21T04:46:15;15.52;;;12.95;;
64832;SDS011;51290;45.060;38.948;2023-11-21T04:48:41;16.77;;;13.02;;
64832;SDS011;51290;45.060;38.948;2023-11-21T04:51:07;15.57;;;12.80;;
64832;SDS011;51290;45.060;38.948;2023-11-21T04:53:33;15.57;;;12.82;;
64832;SDS011;51290;45.060;38.948;2023-11-21T04:56:00;18.08;;;13.48;;
64832;SDS011;51290;45.060;38.948;2023-11-21T04:58:27;16.45;;;13.02;;
64832;SDS011;51290;45.060;38.948;2023-11-21T05:00:53;14.50;;;11.98;;
64832;SDS011;51290;45.060;38.948;2023-11-21T05:03:19;17.23;;;13.20;;
64832;SDS011;51290;45.060;38.948;2023-11-21T05:05:45;16.13;;;13.38;;
64832;SDS011;51290;45.060;38.948;2023-11-21T05:08:10;14.43;;;12.48;;
64832;SDS011;51290;45.060;38.948;2023-11-21T05:10:36;18.30;;;14.88;;
64832;SDS011;51290;45.060;38.948;2023-11-21T05:13:04;19.90;;;14.10;;
64832;SDS011;51290;45.060;38.948;2023-11-21T05:15:35;18.05;;;12.80;;
64832;SDS011;51290;45.060;38.948;2023-11-21T05:18:01;16.13;;;13.75;;
64832;SDS011;51290;45.060;38.948;2023-11-21T05:20:27;18.80;;;13.60;;
64832;SDS011;51290;45.060;38.948;2023-11-21T05:22:53;14.90;;;12.65;;
64832;SDS011;51290;45.060;38.948;2023-11-21T05:25:19;16.75;;;12.75;;
64832;SDS011;51290;45.060;38.948;2023-11-21T05:27:45;15.93;;;12.93;;
64832;SDS011;51290;45.060;38.948;2023-11-21T05:30:13;16.63;;;13.50;;
64832;SDS011;51290;45.060;38.948;2023-11-21T05:32:39;16.00;;;12.90;;
64832;SDS011;51290;45.060;38.948;2023-11-21T05:35:08;16.70;;;13.95;;
64832;SDS011;51290;45.060;38.948;2023-11-21T05:37:43;18.52;;;13.63;;
64832;SDS011;51290;45.060;38.948;2023-11-21T05:40:10;19.13;;;14.57;;
64832;SDS011;51290;45.060;38.948;2023-11-21T05:42:38;19.00;;;13.60;;
64832;SDS011;51290;45.060;38.948;2023-11-21T05:45:06;17.08;;;13.38;;
64832;SDS011;51290;45.060;38.948;2023-11-21T05:47:40;17.90;;;14.65;;
64832;SDS011;51290;45.060;38.948;2023-11-21T05:50:06;15.80;;;13.52;;
64832;SDS011;51290;45.060;38.948;2023-11-21T05:52:37;18.38;;;14.15;;
64832;SDS011;51290;45.060;38.948;2023-11-21T05:55:07;18.58;;;15.00;;
64832;SDS011;51290;45.060;38.948;2023-11-21T05:57:34;17.77;;;13.68;;
64832;SDS011;51290;45.060;38.948;2023-11-21T06:00:04;16.10;;;13.50;;
64832;SDS011;51290;45.060;38.948;2023-11-21T06:02:39;14.80;;;12.85;;
64832;SDS011;51290;45.060;38.948;2023-11-21T06:05:06;15.70;;;13.60;;
64832;SDS011;51290;45.060;38.948;2023-11-21T06:07:32;17.88;;;13.43;;
64832;SDS011;51290;45.060;38.948;2023-11-21T06:09:59;16.17;;;14.23;;
64832;SDS011;51290;45.060;38.948;2023-11-21T06:12:25;17.13;;;14.10;;
64832;SDS011;51290;45.060;38.948;2023-11-21T06:14:51;16.27;;;14.00;;
64832;SDS011;51290;45.060;38.948;2023-11-21T06:17:17;20.42;;;14.35;;
64832;SDS011;51290;45.060;38.948;2023-11-21T06:19:43;18.48;;;14.93;;
64832;SDS011;51290;45.060;38.948;2023-11-21T06:22:11;19.58;;;14.30;;
64832;SDS011;51290;45.060;38.948;2023-11-21T06:24:37;17.27;;;14.85;;
64832;SDS011;51290;45.060;38.948;2023-11-21T06:27:04;17.08;;;15.07;;
64832;SDS011;51290;45.060;38.948;2023-11-21T06:29:30;18.05;;;15.05;;
64832;SDS011;51290;45.060;38.948;2023-11-21T06:31:57;18.17;;;15.10;;
64832;SDS011;51290;45.060;38.948;2023-11-21T06:34:23;18.08;;;15.07;;
64832;SDS011;51290;45.060;38.948;2023-11-21T06:36:49;19.60;;;15.85;;
64832;SDS011;51290;45.060;38.948;2023-11-21T06:39:16;23.27;;;15.82;;
64832;SDS011;51290;45.060;38.948;2023-11-21T06:41:42;19.10;;;15.65;;
64832;SDS011;51290;45.060;38.948;2023-11-21T06:44:08;24.05;;;15.65;;
64832;SDS011;51290;45.060;38.948;2023-11-21T06:46:34;17.05;;;14.88;;
64832;SDS011;51290;45.060;38.948;2023-11-21T06:49:00;24.55;;;16.33;;
64832;SDS011;51290;45.060;38.948;2023-11-21T06:51:26;24.35;;;15.82;;
64832;SDS011;51290;45.060;38.948;2023-11-21T06:53:54;17.58;;;15.75;;
64832;SDS011;51290;45.060;38.948;2023-11-21T06:56:20;19.63;;;16.33;;
64832;SDS011;51290;45.060;38.948;2023-11-21T06:58:47;18.40;;;15.88;;
64832;SDS011;51290;45.060;38.948;2023-11-21T07:01:14;20.25;;;16.95;;
64832;SDS011;51290;45.060;38.948;2023-11-21T07:03:40;21.10;;;16.58;;
64832;SDS011;51290;45.060;38.948;2023-11-21T07:06:07;20.75;;;16.05;;
64832;SDS011;51290;45.060;38.948;2023-11-21T07:08:33;20.65;;;15.93;;
64832;SDS011;51290;45.060;38.948;2023-11-21T07:10:59;21.33;;;16.10;;
64832;SDS011;51290;45.060;38.948;2023-11-21T07:13:25;18.85;;;16.77;;
64832;SDS011;51290;45.060;38.948;2023-11-21T07:15:51;21.17;;;16.88;;
64832;SDS011;51290;45.060;38.948;2023-11-21T07:18:17;21.98;;;18.00;;
64832;SDS011;51290;45.060;38.948;2023-11-21T07:20:43;19.77;;;16.27;;
64832;SDS011;51290;45.060;38.948;2023-11-21T07:23:09;22.15;;;17.48;;
64832;SDS011;51290;45.060;38.948;2023-11-21T07:25:35;22.30;;;17.08;;
64832;SDS011;51290;45.060;38.948;2023-11-21T07:28:01;19.83;;;15.27;;
64832;SDS011;51290;45.060;38.948;2023-11-21T07:30:28;23.10;;;15.27;;
64832;SDS011;51290;45.060;38.948;2023-11-21T07:32:54;19.52;;;16.83;;
64832;SDS011;51290;45.060;38.948;2023-11-21T07:35:20;24.20;;;15.48;;
64832;SDS011;51290;45.060;38.948;2023-11-21T07:37:46;21.48;;;15.95;;
64832;SDS011;51290;45.060;38.948;2023-11-21T07:40:14;21.95;;;16.58;;
64832;SDS011;51290;45.060;38.948;2023-11-21T07:42:40;16.33;;;13.15;;
64832;SDS011;51290;45.060;38.948;2023-11-21T07:45:08;13.73;;;11.45;;
64832;SDS011;51290;45.060;38.948;2023-11-21T07:47:34;17.10;;;11.85;;
64832;SDS011;51290;45.060;38.948;2023-11-21T07:50:02;15.93;;;13.05;;
64832;SDS011;51290;45.060;38.948;2023-11-21T07:52:28;15.43;;;11.93;;
64832;SDS011;51290;45.060;38.948;2023-11-21T07:54:54;15.52;;;10.82;;
64832;SDS011;51290;45.060;38.948;2023-11-21T07:57:21;16.25;;;11.15;;
64832;SDS011;51290;45.060;38.948;2023-11-21T07:59:47;17.08;;;11.60;;
64832;SDS011;51290;45.060;38.948;2023-11-21T08:02:13;12.93;;;10.95;;
64832;SDS011;51290;45.060;38.948;2023-11-21T08:04:41;12.50;;;10.13;;
64832;SDS011;51290;45.060;38.948;2023-11-21T08:07:07;12.95;;;10.10;;
64832;SDS011;51290;45.060;38.948;2023-11-21T08:09:33;13.15;;;10.18;;
64832;SDS011;51290;45.060;38.948;2023-11-21T08:11:59;15.23;;;10.82;;
64832;SDS011;51290;45.060;38.948;2023-11-21T08:14:27;14.02;;;10.68;;
64832;SDS011;51290;45.060;38.948;2023-11-21T08:16:53;12.90;;;9.57;;
64832;SDS011;51290;45.060;38.948;2023-11-21T08:19:23;21.30;;;11.13;;
64832;SDS011;51290;45.060;38.948;2023-11-21T08:21:50;15.63;;;11.18;;
64832;SDS011;51290;45.060;38.948;2023-11-21T08:24:20;16.98;;;12.85;;
64832;SDS011;51290;45.060;38.948;2023-11-21T08:26:46;14.18;;;11.43;;
64832;SDS011;51290;45.060;38.948;2023-11-21T08:29:12;13.65;;;11.68;;
64832;SDS011;51290;45.060;38.948;2023-11-21T08:31:38;13.13;;;11.40;;
64832;SDS011;51290;45.060;38.948;2023-11-21T08:34:04;18.75;;;12.13;;
64832;SDS011;51290;45.060;38.948;2023-11-21T08:36:30;14.18;;;11.25;;
64832;SDS011;51290;45.060;38.948;2023-11-21T08:38:56;14.32;;;11.65;;
64832;SDS011;51290;45.060;38.948;2023-11-21T08:41:23;15.15;;;11.95;;
64832;SDS011;51290;45.060;38.948;2023-11-21T08:43:52;14.35;;;12.38;;
64832;SDS011;51290;45.060;38.948;2023-11-21T08:46:20;14.30;;;11.65;;
64832;SDS011;51290;45.060;38.948;2023-11-21T08:48:46;15.77;;;12.27;;
64832;SDS011;51290;45.060;38.948;2023-11-21T08:51:12;12.25;;;10.60;;
64832;SDS011;51290;45.060;38.948;2023-11-21T08:53:39;13.98;;;11.05;;
64832;SDS011;51290;45.060;38.948;2023-11-21T08:56:05;12.93;;;10.93;;
64832;SDS011;51290;45.060;38.948;2023-11-21T08:58:32;13.52;;;11.23;;
64832;SDS011;51290;45.060;38.948;2023-11-21T09:00:58;16.10;;;11.77;;
64832;SDS011;51290;45.060;38.948;2023-11-21T09:03:24;14.10;;;12.07;;
64832;SDS011;51290;45.060;38.948;2023-11-21T09:05:50;14.68;;;10.98;;
64832;SDS011;51290;45.060;38.948;2023-11-21T09:08:16;16.25;;;11.60;;
64832;SDS011;51290;45.060;38.948;2023-11-21T09:10:42;13.48;;;11.57;;
64832;SDS011;51290;45.060;38.948;2023-11-21T09:13:10;13.82;;;12.23;;
64832;SDS011;51290;45.060;38.948;2023-11-21T09:15:37;16.75;;;12.65;;
64832;SDS011;51290;45.060;38.948;2023-11-21T09:18:03;13.75;;;12.25;;
64832;SDS011;51290;45.060;38.948;2023-11-21T09:20:30;14.77;;;11.88;;
64832;SDS011;51290;45.060;38.948;2023-11-21T09:22:56;15.05;;;12.18;;
64832;SDS011;51290;45.060;38.948;2023-11-21T09:25:22;18.83;;;11.82;;
64832;SDS011;51290;45.060;38.948;2023-11-21T09:27:48;13.98;;;11.13;;
64832;SDS011;51290;45.060;38.948;2023-11-21T09:30:14;14.80;;;12.57;;
64832;SDS011;51290;45.060;38.948;2023-11-21T09:32:41;12.25;;;10.48;;
64832;SDS011;51290;45.060;38.948;2023-11-21T09:35:10;11.13;;;9.88;;
64832;SDS011;51290;45.060;38.948;2023-11-21T09:37:39;12.77;;;10.65;;
64832;SDS011;51290;45.060;38.948;2023-11-21T09:40:05;15.57;;;11.50;;
64832;SDS011;51290;45.060;38.948;2023-11-21T09:42:48;15.32;;;10.73;;
64832;SDS011;51290;45.060;38.948;2023-11-21T09:45:29;16.58;;;13.30;;
64832;SDS011;51290;45.060;38.948;2023-11-21T09:48:00;16.40;;;12.77;;
64832;SDS011;51290;45.060;38.948;2023-11-21T09:50:26;18.15;;;13.38;;
64832;SDS011;51290;45.060;38.948;2023-11-21T09:55:44;14.30;;;11.57;;
64832;SDS011;51290;45.060;38.948;2023-11-21T09:58:13;14.88;;;12.15;;
64832;SDS011;51290;45.060;38.948;2023-11-21T10:00:40;13.70;;;11.80;;
64832;SDS011;51290;45.060;38.948;2023-11-21T10:03:07;14.85;;;12.43;;
64832;SDS011;51290;45.060;38.948;2023-11-21T10:05:35;14.75;;;12.57;;
64832;SDS011;51290;45.060;38.948;2023-11-21T10:08:01;15.27;;;11.90;;
64832;SDS011;51290;45.060;38.948;2023-11-21T10:10:29;13.57;;;10.98;;
64832;SDS011;51290;45.060;38.948;2023-11-21T10:12:57;14.35;;;11.80;;
64832;SDS011;51290;45.060;38.948;2023-11-21T10:15:29;16.85;;;11.65;;
64832;SDS011;51290;45.060;38.948;2023-11-21T10:17:56;14.18;;;11.93;;
64832;SDS011;51290;45.060;38.948;2023-11-21T10:20:23;15.65;;;11.82;;
64832;SDS011;51290;45.060;38.948;2023-11-21T10:22:51;14.57;;;12.02;;
64832;SDS011;51290;45.060;38.948;2023-11-21T10:25:17;14.68;;;11.48;;
64832;SDS011;51290;45.060;38.948;2023-11-21T10:27:47;14.82;;;12.77;;
64832;SDS011;51290;45.060;38.948;2023-11-21T10:30:16;13.43;;;12.05;;
64832;SDS011;51290;45.060;38.948;2023-11-21T10:32:43;15.05;;;11.68;;
64832;SDS011;51290;45.060;38.948;2023-11-21T10:35:09;16.17;;;12.27;;
64832;SDS011;51290;45.060;38.948;2023-11-21T10:37:36;15.95;;;12.27;;
64832;SDS011;51290;45.060;38.948;2023-11-21T10:40:11;13.15;;;11.57;;
64832;SDS011;51290;45.060;38.948;2023-11-21T10:42:38;15.45;;;11.82;;
64832;SDS011;51290;45.060;38.948;2023-11-21T10:45:04;19.15;;;13.15;;
64832;SDS011;51290;45.060;38.948;2023-11-21T10:52:42;15.57;;;11.82;;
64832;SDS011;51290;45.060;38.948;2023-11-21T10:55:18;12.15;;;10.43;;
64832;SDS011;51290;45.060;38.948;2023-11-21T10:57:48;17.50;;;11.70;;
64832;SDS011;51290;45.060;38.948;2023-11-21T11:00:15;16.35;;;13.48;;
64832;SDS011;51290;45.060;38.948;2023-11-21T11:02:44;17.10;;;12.90;;
64832;SDS011;51290;45.060;38.948;2023-11-21T11:05:14;17.00;;;12.45;;
64832;SDS011;51290;45.060;38.948;2023-11-21T11:07:44;18.35;;;12.75;;
64832;SDS011;51290;45.060;38.948;2023-11-21T11:10:12;16.63;;;13.30;;
64832;SDS011;51290;45.060;38.948;2023-11-21T11:12:42;15.82;;;12.95;;
64832;SDS011;51290;45.060;38.948;2023-11-21T11:15:12;15.15;;;12.73;;
64832;SDS011;51290;45.060;38.948;2023-11-21T11:17:39;13.18;;;11.73;;
64832;SDS011;51290;45.060;38.948;2023-11-21T11:20:08;18.30;;;11.82;;
64832;SDS011;51290;45.060;38.948;2023-11-21T11:22:41;14.55;;;11.80;;
64832;SDS011;51290;45.060;38.948;2023-11-21T11:28:19;13.48;;;10.45;;
64832;SDS011;51290;45.060;38.948;2023-11-21T11:31:07;13.05;;;10.70;;
64832;SDS011;51290;45.060;38.948;2023-11-21T11:34:23;12.15;;;9.93;;
64832;SDS011;51290;45.060;38.948;2023-11-21T11:37:04;12.90;;;10.35;;
64832;SDS011;51290;45.060;38.948;2023-11-21T11:42:15;14.57;;;9.77;;
64832;SDS011;51290;45.060;38.948;2023-11-21T11:47:14;13.77;;;9.82;;
64832;SDS011;51290;45.060;38.948;2023-11-21T11:50:12;13.35;;;10.23;;
64832;SDS011;51290;45.060;38.948;2023-11-21T11:55:10;15.55;;;10.23;;
64832;SDS011;51290;45.060;38.948;2023-11-21T11:57:41;15.30;;;10.25;;
64832;SDS011;51290;45.060;38.948;2023-11-21T12:02:47;13.95;;;10.90;;
64832;SDS011;51290;45.060;38.948;2023-11-21T12:05:15;12.48;;;10.40;;
64832;SDS011;51290;45.060;38.948;2023-11-21T12:10:14;12.43;;;10.88;;
64832;SDS011;51290;45.060;38.948;2023-11-21T12:12:43;15.32;;;12.10;;
64832;SDS011;51290;45.060;38.948;2023-11-21T12:15:14;19.98;;;13.23;;
64832;SDS011;51290;45.060;38.948;2023-11-21T12:17:43;17.70;;;14.15;;
64832;SDS011;51290;45.060;38.948;2023-11-21T12:20:13;21.70;;;14.88;;
64832;SDS011;51290;45.060;38.948;2023-11-21T12:23:21;18.15;;;14.95;;
64832;SDS011;51290;45.060;38.948;2023-11-21T12:25:29;20.73;;;16.38;;
64832;SDS011;51290;45.060;38.948;2023-11-21T12:27:57;22.40;;;16.80;;
64832;SDS011;51290;45.060;38.948;2023-11-21T12:30:34;23.10;;;16.85;;
64832;SDS011;51290;45.060;38.948;2023-11-21T12:33:01;17.92;;;14.50;;
64832;SDS011;51290;45.060;38.948;2023-11-21T12:35:30;17.88;;;14.75;;
64832;SDS011;51290;45.060;38.948;2023-11-21T12:38:01;20.25;;;16.70;;
64832;SDS011;51290;45.060;38.948;2023-11-21T12:40:28;21.67;;;15.65;;
64832;SDS011;51290;45.060;38.948;2023-11-21T12:42:59;20.70;;;16.73;;
64832;SDS011;51290;45.060;38.948;2023-11-21T12:45:27;21.33;;;16.20;;
64832;SDS011;51290;45.060;38.948;2023-11-21T12:47:55;20.70;;;17.73;;
64832;SDS011;51290;45.060;38.948;2023-11-21T12:50:34;19.52;;;16.30;;
64832;SDS011;51290;45.060;38.948;2023-11-21T12:53:03;20.05;;;16.88;;
64832;SDS011;51290;45.060;38.948;2023-11-21T12:55:32;21.67;;;16.73;;
64832;SDS011;51290;45.060;38.948;2023-11-21T12:58:03;24.30;;;17.40;;
64832;SDS011;51290;45.060;38.948;2023-11-21T13:00:43;20.83;;;17.42;;
64832;SDS011;51290;45.060;38.948;2023-11-21T13:03:12;23.88;;;17.58;;
64832;SDS011;51290;45.060;38.948;2023-11-21T13:05:43;20.10;;;17.13;;
64832;SDS011;51290;45.060;38.948;2023-11-21T13:08:11;20.92;;;18.65;;
64832;SDS011;51290;45.060;38.948;2023-11-21T13:10:42;22.67;;;18.20;;
64832;SDS011;51290;45.060;38.948;2023-11-21T13:13:12;22.58;;;17.42;;
64832;SDS011;51290;45.060;38.948;2023-11-21T13:15:52;19.40;;;17.33;;
64832;SDS011;51290;45.060;38.948;2023-11-21T13:18:22;24.27;;;19.35;;
64832;SDS011;51290;45.060;38.948;2023-11-21T13:20:49;21.15;;;17.80;;
64832;SDS011;51290;45.060;38.948;2023-11-21T13:23:15;22.45;;;18.85;;
64832;SDS011;51290;45.060;38.948;2023-11-21T13:25:42;24.70;;;19.00;;
64832;SDS011;51290;45.060;38.948;2023-11-21T13:28:10;20.35;;;17.73;;
64832;SDS011;51290;45.060;38.948;2023-11-21T13:30:37;21.25;;;17.33;;
64832;SDS011;51290;45.060;38.948;2023-11-21T13:33:05;21.15;;;18.70;;
64832;SDS011;51290;45.060;38.948;2023-11-21T13:35:33;21.85;;;18.70;;
64832;SDS011;51290;45.060;38.948;2023-11-21T13:38:07;22.38;;;18.80;;
64832;SDS011;51290;45.060;38.948;2023-11-21T13:40:41;22.33;;;17.88;;
64832;SDS011;51290;45.060;38.948;2023-11-21T13:43:12;21.73;;;15.25;;
64832;SDS011;51290;45.060;38.948;2023-11-21T13:45:42;16.60;;;13.57;;
64832;SDS011;51290;45.060;38.948;2023-11-21T13:48:10;18.00;;;14.32;;
64832;SDS011;51290;45.060;38.948;2023-11-21T13:50:39;16.17;;;12.82;;
64832;SDS011;51290;45.060;38.948;2023-11-21T13:53:14;12.77;;;11.35;;
64832;SDS011;51290;45.060;38.948;2023-11-21T13:55:48;19.13;;;13.88;;
64832;SDS011;51290;45.060;38.948;2023-11-21T13:58:16;15.70;;;12.20;;
64832;SDS011;51290;45.060;38.948;2023-11-21T14:00:49;15.13;;;11.95;;
64832;SDS011;51290;45.060;38.948;2023-11-21T14:03:24;16.73;;;12.32;;
64832;SDS011;51290;45.060;38.948;2023-11-21T14:06:03;15.45;;;11.27;;
64832;SDS011;51290;45.060;38.948;2023-11-21T14:11:05;14.27;;;10.63;;
64832;SDS011;51290;45.060;38.948;2023-11-21T14:13:32;12.70;;;10.18;;
64832;SDS011;51290;45.060;38.948;2023-11-21T14:15:58;11.98;;;9.55;;
64832;SDS011;51290;45.060;38.948;2023-11-21T14:18:26;11.88;;;8.68;;
64832;SDS011;51290;45.060;38.948;2023-11-21T14:20:59;13.13;;;9.68;;
64832;SDS011;51290;45.060;38.948;2023-11-21T14:23:25;13.77;;;8.52;;
64832;SDS011;51290;45.060;38.948;2023-11-21T14:25:51;12.57;;;9.20;;
64832;SDS011;51290;45.060;38.948;2023-11-21T14:28:17;14.40;;;9.77;;
64832;SDS011;51290;45.060;38.948;2023-11-21T14:30:45;13.05;;;9.77;;
64832;SDS011;51290;45.060;38.948;2023-11-21T14:33:14;10.55;;;8.98;;
64832;SDS011;51290;45.060;38.948;2023-11-21T14:35:42;13.15;;;9.15;;
64832;SDS011;51290;45.060;38.948;2023-11-21T14:38:08;11.88;;;9.52;;
64832;SDS011;51290;45.060;38.948;2023-11-21T14:40:35;11.13;;;8.65;;
64832;SDS011;51290;45.060;38.948;2023-11-21T14:43:02;11.35;;;8.32;;
64832;SDS011;51290;45.060;38.948;2023-11-21T14:45:31;11.30;;;9.02;;